createdAt,value
2022-07-27T00:01:50.575Z,17.30
2022-07-27T00:04:18.435Z,17.35
2022-07-27T00:06:45.149Z,16.77
2022-07-27T00:09:12.126Z,16.80
2022-07-27T00:11:39.048Z,17.02
2022-07-27T00:14:08.690Z,17.13
2022-07-27T00:16:35.473Z,17.50
2022-07-27T00:19:02.174Z,17.67
2022-07-27T00:21:28.799Z,16.38
2022-07-27T00:23:55.556Z,16.90
2022-07-27T00:26:22.308Z,17.20
2022-07-27T00:28:49.364Z,17.73
2022-07-27T00:31:16.344Z,17.95
2022-07-27T00:33:43.027Z,18.02
2022-07-27T00:36:09.762Z,19.75
2022-07-27T00:38:36.490Z,17.50
2022-07-27T00:41:03.164Z,16.45
2022-07-27T00:43:29.910Z,16.85
2022-07-27T00:45:56.521Z,16.50
2022-07-27T00:48:23.191Z,17.95
2022-07-27T00:50:51.744Z,17.45
2022-07-27T00:53:18.335Z,16.88
2022-07-27T00:55:45.192Z,15.95
2022-07-27T00:58:11.876Z,16.88
2022-07-27T01:00:38.694Z,16.70
2022-07-27T01:03:08.814Z,16.65
2022-07-27T01:08:12.172Z,16.52
2022-07-27T01:10:39.829Z,16.92
2022-07-27T01:13:06.494Z,17.20
2022-07-27T01:15:39.627Z,18.02
2022-07-27T01:18:27.035Z,17.42
2022-07-27T01:20:54.307Z,17.80
2022-07-27T01:23:20.986Z,17.00
2022-07-27T01:25:47.789Z,17.35
2022-07-27T01:28:14.465Z,17.23
2022-07-27T01:30:41.081Z,17.30
2022-07-27T01:33:08.698Z,17.95
2022-07-27T01:35:36.127Z,16.25
2022-07-27T01:38:02.897Z,18.17
2022-07-27T01:40:29.544Z,15.95
2022-07-27T01:42:56.411Z,17.20
2022-07-27T01:45:23.048Z,16.67
2022-07-27T01:47:49.721Z,17.45
2022-07-27T01:50:16.432Z,16.77
2022-07-27T01:52:48.723Z,16.10
2022-07-27T01:55:19.423Z,18.98
2022-07-27T01:57:46.094Z,16.58
2022-07-27T02:00:15.197Z,17.73
2022-07-27T02:02:41.941Z,16.48
2022-07-27T02:05:11.938Z,17.35
2022-07-27T02:07:40.098Z,16.63
2022-07-27T02:10:07.100Z,16.25
2022-07-27T02:12:36.432Z,17.70
2022-07-27T02:15:14.719Z,17.23
2022-07-27T02:17:42.405Z,17.02
2022-07-27T02:20:10.086Z,17.13
2022-07-27T02:22:36.839Z,17.80
2022-07-27T02:25:04.253Z,18.02
2022-07-27T02:27:30.880Z,19.05
2022-07-27T02:29:58.087Z,17.95
2022-07-27T02:32:24.771Z,16.73
2022-07-27T02:34:53.909Z,16.55
2022-07-27T02:37:22.612Z,17.00
2022-07-27T02:39:49.597Z,16.00
2022-07-27T02:42:16.235Z,15.82
2022-07-27T02:44:43.013Z,15.52
2022-07-27T02:47:09.635Z,15.55
2022-07-27T02:49:38.660Z,16.63
2022-07-27T02:52:07.815Z,16.73
2022-07-27T02:54:37.678Z,15.95
2022-07-27T02:57:07.074Z,17.55
2022-07-27T02:59:33.733Z,15.50
2022-07-27T03:02:00.426Z,16.95
2022-07-27T03:04:27.170Z,16.15
2022-07-27T03:06:56.300Z,15.32
2022-07-27T03:09:29.045Z,15.75
2022-07-27T03:12:05.694Z,15.30
2022-07-27T03:14:34.579Z,15.93
2022-07-27T03:17:01.292Z,14.20
2022-07-27T03:19:30.412Z,15.30
2022-07-27T03:21:57.260Z,14.60
2022-07-27T03:24:23.894Z,15.35
2022-07-27T03:26:50.536Z,18.13
2022-07-27T03:29:17.216Z,15.32
2022-07-27T03:31:45.648Z,15.15
2022-07-27T03:34:13.751Z,15.70
2022-07-27T03:36:40.419Z,15.50
2022-07-27T03:39:07.478Z,16.60
2022-07-27T03:41:34.179Z,15.90
2022-07-27T03:44:03.207Z,17.40
2022-07-27T03:46:29.859Z,15.32
2022-07-27T03:48:57.743Z,16.88
2022-07-27T03:51:24.649Z,17.33
2022-07-27T03:53:51.316Z,16.55
2022-07-27T03:56:17.943Z,16.13
2022-07-27T03:58:47.092Z,17.55
2022-07-27T04:01:13.866Z,16.80
2022-07-27T04:03:44.239Z,16.08
2022-07-27T04:06:13.533Z,15.52
2022-07-27T04:08:40.247Z,17.63
2022-07-27T04:11:07.689Z,17.75
2022-07-27T04:13:36.492Z,16.90
2022-07-27T04:16:05.711Z,18.52
2022-07-27T04:18:32.451Z,19.17
2022-07-27T04:21:01.969Z,18.35
2022-07-27T04:23:28.716Z,18.70
2022-07-27T04:25:55.413Z,19.65
2022-07-27T04:28:22.063Z,19.17
2022-07-27T04:30:48.721Z,17.08
2022-07-27T04:33:15.556Z,18.70
2022-07-27T04:35:42.256Z,17.63
2022-07-27T04:38:08.923Z,15.35
2022-07-27T04:40:35.656Z,14.38
2022-07-27T04:43:03.257Z,17.42
2022-07-27T04:45:30.001Z,16.38
2022-07-27T04:47:58.831Z,12.82
2022-07-27T04:50:25.512Z,11.13
2022-07-27T04:52:52.111Z,11.57
2022-07-27T04:55:18.808Z,19.38
2022-07-27T04:57:45.448Z,10.48
2022-07-27T05:00:12.492Z,14.52
2022-07-27T05:02:42.261Z,11.05
2022-07-27T05:05:09.166Z,12.98
2022-07-27T05:07:36.639Z,16.63
2022-07-27T05:10:03.732Z,17.17
2022-07-27T05:12:30.446Z,25.45
2022-07-27T05:14:57.093Z,12.75
2022-07-27T05:17:23.690Z,16.75
2022-07-27T05:19:50.339Z,14.05
2022-07-27T05:22:16.972Z,24.73
2022-07-27T05:24:47.217Z,22.33
2022-07-27T05:27:13.955Z,24.13
2022-07-27T05:29:40.612Z,22.83
2022-07-27T05:32:07.536Z,17.30
2022-07-27T05:34:34.354Z,11.02
2022-07-27T05:37:01.850Z,14.27
2022-07-27T05:39:28.585Z,13.50
2022-07-27T05:41:55.272Z,14.27
2022-07-27T05:44:21.984Z,10.77
2022-07-27T05:47:06.150Z,11.35
2022-07-27T05:49:33.279Z,12.75
2022-07-27T05:52:02.288Z,12.70
2022-07-27T05:54:28.963Z,9.82
2022-07-27T05:56:55.747Z,11.75
2022-07-27T05:59:22.385Z,11.40
2022-07-27T06:01:49.001Z,9.80
2022-07-27T06:04:15.652Z,9.88
2022-07-27T06:07:00.926Z,9.50
2022-07-27T06:09:27.544Z,9.80
2022-07-27T06:11:54.202Z,9.57
2022-07-27T06:14:20.897Z,9.52
2022-07-27T06:16:47.565Z,10.13
2022-07-27T06:19:14.652Z,9.00
2022-07-27T06:21:41.540Z,9.52
2022-07-27T06:24:08.367Z,9.50
2022-07-27T06:26:37.963Z,9.32
2022-07-27T06:29:09.805Z,9.13
2022-07-27T06:31:37.746Z,9.23
2022-07-27T06:34:11.743Z,9.02
2022-07-27T06:36:42.939Z,8.55
2022-07-27T06:39:10.064Z,8.73
2022-07-27T06:41:36.964Z,8.65
2022-07-27T06:44:03.675Z,9.15
2022-07-27T06:46:30.456Z,9.90
2022-07-27T06:48:57.197Z,8.75
2022-07-27T06:51:24.115Z,9.25
2022-07-27T06:53:53.257Z,8.70
2022-07-27T06:56:20.595Z,9.15
2022-07-27T06:58:47.252Z,8.82
2022-07-27T07:01:14.821Z,8.63
2022-07-27T07:03:44.083Z,9.38
2022-07-27T07:06:13.169Z,8.40
2022-07-27T07:08:39.802Z,8.80
2022-07-27T07:11:06.607Z,9.05
2022-07-27T07:13:37.734Z,9.15
2022-07-27T07:16:06.068Z,8.65
2022-07-27T07:18:32.765Z,9.15
2022-07-27T07:20:59.434Z,9.10
2022-07-27T07:23:26.470Z,8.85
2022-07-27T07:25:53.144Z,9.18
2022-07-27T07:28:22.234Z,8.65
2022-07-27T07:30:49.393Z,9.13
2022-07-27T07:33:16.098Z,9.48
2022-07-27T07:36:13.580Z,8.77
2022-07-27T07:38:30.115Z,8.23
2022-07-27T07:40:56.750Z,8.70
2022-07-27T07:43:23.503Z,8.95
2022-07-27T07:45:52.130Z,9.00
2022-07-27T07:48:20.682Z,9.38
2022-07-27T07:50:51.645Z,8.63
2022-07-27T07:53:23.417Z,8.35
2022-07-27T07:55:50.998Z,8.75
2022-07-27T07:58:18.138Z,8.95
2022-07-27T08:00:44.831Z,9.00
2022-07-27T08:03:14.425Z,8.85
2022-07-27T08:05:41.109Z,8.60
2022-07-27T08:08:07.794Z,8.45
2022-07-27T08:10:34.425Z,8.23
2022-07-27T08:13:01.055Z,8.55
2022-07-27T08:15:34.932Z,8.60
2022-07-27T08:18:06.027Z,8.65
2022-07-27T08:20:32.862Z,8.57
2022-07-27T08:22:59.534Z,8.85
2022-07-27T08:25:26.171Z,8.50
2022-07-27T08:27:52.813Z,8.75
2022-07-27T08:30:22.108Z,8.70
2022-07-27T08:32:57.788Z,8.60
2022-07-27T08:35:24.573Z,8.82
2022-07-27T08:37:51.236Z,9.15
2022-07-27T08:43:05.519Z,8.50
2022-07-27T08:45:32.515Z,8.48
2022-07-27T08:47:59.283Z,9.20
2022-07-27T08:50:30.374Z,8.30
2022-07-27T08:53:03.346Z,8.80
2022-07-27T08:55:40.384Z,8.10
2022-07-27T08:58:07.493Z,8.52
2022-07-27T09:00:35.113Z,9.02
2022-07-27T09:03:02.084Z,8.07
2022-07-27T09:05:36.140Z,7.95
2022-07-27T09:08:10.241Z,8.65
2022-07-27T09:10:38.403Z,8.30
2022-07-27T09:13:29.877Z,7.95
2022-07-27T09:16:22.434Z,8.18
2022-07-27T09:18:49.174Z,8.15
2022-07-27T09:21:22.876Z,8.63
2022-07-27T09:23:51.885Z,8.10
2022-07-27T09:26:33.827Z,7.65
2022-07-27T09:29:10.916Z,8.63
2022-07-27T09:31:46.444Z,7.18
2022-07-27T09:34:13.803Z,8.07
2022-07-27T09:36:54.144Z,8.00
2022-07-27T09:39:21.859Z,8.48
2022-07-27T09:42:00.153Z,8.18
2022-07-27T09:44:43.986Z,7.80
2022-07-27T09:47:29.971Z,8.60
2022-07-27T09:49:58.499Z,8.07
2022-07-27T09:52:26.650Z,8.38
2022-07-27T09:54:53.323Z,9.60
2022-07-27T09:57:22.932Z,8.48
2022-07-27T09:59:49.559Z,8.32
2022-07-27T10:02:16.468Z,7.57
2022-07-27T10:04:43.350Z,8.90
2022-07-27T10:07:13.459Z,8.27
2022-07-27T10:09:43.286Z,8.18
2022-07-27T10:12:10.093Z,8.52
2022-07-27T10:14:36.782Z,8.32
2022-07-27T10:17:03.406Z,8.38
2022-07-27T10:19:45.724Z,8.10
2022-07-27T10:22:12.956Z,8.82
2022-07-27T10:24:39.573Z,8.35
2022-07-27T10:27:21.235Z,8.57
2022-07-27T10:29:50.862Z,7.82
2022-07-27T10:32:28.815Z,7.97
2022-07-27T10:34:55.505Z,8.43
2022-07-27T10:37:31.564Z,8.10
2022-07-27T10:40:26.567Z,8.32
2022-07-27T10:43:07.125Z,8.48
2022-07-27T10:45:50.422Z,8.50
2022-07-27T10:48:45.954Z,7.68
2022-07-27T10:51:16.433Z,8.57
2022-07-27T10:54:10.954Z,8.30
2022-07-27T10:56:47.280Z,8.45
2022-07-27T10:59:14.023Z,8.45
2022-07-27T11:01:57.280Z,8.02
2022-07-27T11:04:24.646Z,8.20
2022-07-27T11:07:23.561Z,8.20
2022-07-27T11:12:29.565Z,9.10
2022-07-27T11:14:56.981Z,8.55
2022-07-27T11:20:13.428Z,8.43
2022-07-27T11:25:27.748Z,8.70
2022-07-27T11:27:54.330Z,9.00
2022-07-27T11:30:22.541Z,8.57
2022-07-27T11:32:49.507Z,8.75
2022-07-27T11:35:19.832Z,8.50
2022-07-27T11:38:05.098Z,9.20
2022-07-27T11:40:56.945Z,9.05
2022-07-27T11:43:36.752Z,9.25
2022-07-27T11:46:20.080Z,8.70
2022-07-27T11:49:07.110Z,9.32
2022-07-27T11:51:39.405Z,7.88
2022-07-27T11:54:07.792Z,8.65
2022-07-27T11:56:35.868Z,8.95
2022-07-27T11:59:13.969Z,9.05
2022-07-27T12:01:44.868Z,9.68
2022-07-27T12:04:19.279Z,9.75
2022-07-27T12:07:07.527Z,9.23
2022-07-27T12:09:38.004Z,9.38
2022-07-27T12:12:10.058Z,9.27
2022-07-27T12:14:38.663Z,9.40
2022-07-27T12:17:20.214Z,9.05
2022-07-27T12:19:54.381Z,9.75
2022-07-27T12:22:24.962Z,9.35
2022-07-27T12:24:51.737Z,9.52
2022-07-27T12:27:18.379Z,9.82
2022-07-27T12:30:01.707Z,9.82
2022-07-27T12:32:28.770Z,9.60
2022-07-27T12:34:55.448Z,9.27
2022-07-27T12:37:22.234Z,9.63
2022-07-27T12:39:49.009Z,10.38
2022-07-27T12:42:15.800Z,9.70
2022-07-27T12:44:44.585Z,9.30
2022-07-27T12:47:29.927Z,9.73
2022-07-27T12:50:08.356Z,9.73
2022-07-27T12:52:36.500Z,9.73
2022-07-27T12:55:04.018Z,10.30
2022-07-27T12:57:53.963Z,9.23
2022-07-27T13:00:18.859Z,9.65
2022-07-27T13:02:45.908Z,9.13
2022-07-27T13:05:13.910Z,10.35
2022-07-27T13:07:41.297Z,10.15
2022-07-27T13:10:09.032Z,9.57
2022-07-27T13:12:35.974Z,9.57
2022-07-27T13:15:06.946Z,9.48
2022-07-27T13:17:34.130Z,9.80
2022-07-27T13:20:03.304Z,10.27
2022-07-27T13:22:30.087Z,10.05
2022-07-27T13:24:56.772Z,10.00
2022-07-27T13:27:23.407Z,9.73
2022-07-27T13:29:50.046Z,9.90
2022-07-27T13:32:18.237Z,9.68
2022-07-27T13:34:45.167Z,9.77
2022-07-27T13:37:11.876Z,9.57
2022-07-27T13:39:38.679Z,10.25
2022-07-27T13:42:05.480Z,9.77
2022-07-27T13:45:00.520Z,10.13
2022-07-27T13:47:18.737Z,9.40
2022-07-27T13:49:45.385Z,9.70
2022-07-27T13:52:14.916Z,10.15
2022-07-27T13:54:42.035Z,10.20
2022-07-27T13:57:09.112Z,10.52
2022-07-27T13:59:35.881Z,10.85
2022-07-27T14:02:02.597Z,10.07
2022-07-27T14:04:29.317Z,10.30
2022-07-27T14:06:58.916Z,9.77
2022-07-27T14:09:45.513Z,10.85
2022-07-27T14:12:12.120Z,10.05
2022-07-27T14:14:38.808Z,10.02
2022-07-27T14:17:05.725Z,9.93
2022-07-27T14:19:32.389Z,9.65
2022-07-27T14:21:59.051Z,10.65
2022-07-27T14:24:25.684Z,9.93
2022-07-27T14:26:52.315Z,10.63
2022-07-27T14:29:21.688Z,10.68
2022-07-27T14:31:48.579Z,9.43
2022-07-27T14:34:16.553Z,10.13
2022-07-27T14:36:45.656Z,9.63
2022-07-27T14:39:12.588Z,10.27
2022-07-27T14:41:44.147Z,9.98
2022-07-27T14:44:11.173Z,12.98
2022-07-27T14:46:38.323Z,10.45
2022-07-27T14:49:06.567Z,12.23
2022-07-27T14:51:33.551Z,13.13
2022-07-27T14:54:00.217Z,15.02
2022-07-27T14:56:26.993Z,12.70
2022-07-27T14:58:53.618Z,13.95
2022-07-27T15:01:20.322Z,13.30
2022-07-27T15:03:47.072Z,10.68
2022-07-27T15:06:13.774Z,11.27
2022-07-27T15:08:40.423Z,11.13
2022-07-27T15:11:07.090Z,12.10
2022-07-27T15:13:34.126Z,13.10
2022-07-27T15:16:00.849Z,9.70
2022-07-27T15:18:34.961Z,13.05
2022-07-27T15:21:12.809Z,10.60
2022-07-27T15:23:41.911Z,10.27
2022-07-27T15:26:08.538Z,10.30
2022-07-27T15:28:36.386Z,10.77
2022-07-27T15:31:03.327Z,10.27
2022-07-27T15:33:30.084Z,12.95
2022-07-27T15:35:56.799Z,10.25
2022-07-27T15:38:23.472Z,9.60
2022-07-27T15:40:50.131Z,11.90
2022-07-27T15:43:17.485Z,10.75
2022-07-27T15:45:46.332Z,10.40
2022-07-27T15:48:13.029Z,11.23
2022-07-27T15:50:41.807Z,11.27
2022-07-27T15:53:08.611Z,12.02
2022-07-27T15:55:35.439Z,11.60
2022-07-27T15:58:02.070Z,10.82
2022-07-27T16:00:28.960Z,16.40
2022-07-27T16:02:55.931Z,27.25
2022-07-27T16:05:23.943Z,19.60
2022-07-27T16:07:50.798Z,18.25
2022-07-27T16:10:17.825Z,14.10
2022-07-27T16:12:47.459Z,12.77
2022-07-27T16:15:14.189Z,11.18
2022-07-27T16:17:40.877Z,13.02
2022-07-27T16:20:08.041Z,10.32
2022-07-27T16:22:37.954Z,9.65
2022-07-27T16:25:05.003Z,11.33
2022-07-27T16:27:34.021Z,9.75
2022-07-27T16:30:00.662Z,10.77
2022-07-27T16:32:27.332Z,10.13
2022-07-27T16:34:53.966Z,8.95
2022-07-27T16:37:20.721Z,9.38
2022-07-27T16:39:47.339Z,8.50
2022-07-27T16:42:14.311Z,11.70
2022-07-27T16:44:41.491Z,12.43
2022-07-27T16:47:09.646Z,9.55
2022-07-27T16:49:36.874Z,9.27
2022-07-27T16:52:05.280Z,8.48
2022-07-27T16:54:35.574Z,10.70
2022-07-27T16:57:05.877Z,9.60
2022-07-27T16:59:32.540Z,9.88
2022-07-27T17:01:59.272Z,9.57
2022-07-27T17:04:28.670Z,8.82
2022-07-27T17:06:55.333Z,9.38
2022-07-27T17:09:22.004Z,8.27
2022-07-27T17:11:48.794Z,8.88
2022-07-27T17:14:16.663Z,8.77
2022-07-27T17:16:50.252Z,9.30
2022-07-27T17:19:19.007Z,9.05
2022-07-27T17:21:45.845Z,8.18
2022-07-27T17:24:12.487Z,8.27
2022-07-27T17:26:39.165Z,7.90
2022-07-27T17:29:05.944Z,9.35
2022-07-27T17:31:37.882Z,8.10
2022-07-27T17:34:04.632Z,9.48
2022-07-27T17:36:31.277Z,9.07
2022-07-27T17:38:58.017Z,7.97
2022-07-27T17:41:27.112Z,9.40
2022-07-27T17:43:54.402Z,8.38
2022-07-27T17:46:21.942Z,8.73
2022-07-27T17:48:48.844Z,8.73
2022-07-27T17:51:15.586Z,8.90
2022-07-27T17:53:42.905Z,7.20
2022-07-27T17:56:11.003Z,10.05
2022-07-27T17:58:38.094Z,8.00
2022-07-27T18:01:06.279Z,7.57
2022-07-27T18:03:34.081Z,9.82
2022-07-27T18:06:01.667Z,9.75
2022-07-27T18:08:28.397Z,8.52
2022-07-27T18:10:55.118Z,8.77
2022-07-27T18:13:21.877Z,9.45
2022-07-27T18:15:50.489Z,8.02
2022-07-27T18:18:21.247Z,7.90
2022-07-27T18:20:50.256Z,7.72
2022-07-27T18:23:17.156Z,8.77
2022-07-27T18:25:44.423Z,9.23
2022-07-27T18:28:11.562Z,7.28
2022-07-27T18:30:38.213Z,7.95
2022-07-27T18:33:04.910Z,8.27
2022-07-27T18:35:31.794Z,7.70
2022-07-27T18:37:58.488Z,8.15
2022-07-27T18:40:25.206Z,11.52
2022-07-27T18:42:51.832Z,13.88
2022-07-27T18:45:18.528Z,9.38
2022-07-27T18:47:49.339Z,12.95
2022-07-27T18:50:16.490Z,16.70
2022-07-27T18:52:43.122Z,13.90
2022-07-27T18:55:09.917Z,12.18
2022-07-27T18:57:36.541Z,13.52
2022-07-27T19:00:04.882Z,12.68
2022-07-27T19:02:37.125Z,13.85
2022-07-27T19:05:07.327Z,12.57
2022-07-27T19:07:35.766Z,15.67
2022-07-27T19:10:05.697Z,14.73
2022-07-27T19:12:32.440Z,17.15
2022-07-27T19:15:01.547Z,10.93
2022-07-27T19:17:28.251Z,9.57
2022-07-27T19:19:54.912Z,12.57
2022-07-27T19:22:21.585Z,10.98
2022-07-27T19:24:52.812Z,11.48
2022-07-27T19:27:21.436Z,10.60
2022-07-27T19:29:48.094Z,11.02
2022-07-27T19:32:14.808Z,9.38
2022-07-27T19:34:41.502Z,8.80
2022-07-27T19:37:10.552Z,10.95
2022-07-27T19:39:57.283Z,9.95
2022-07-27T19:42:24.057Z,9.20
2022-07-27T19:44:50.663Z,9.93
2022-07-27T19:47:18.470Z,10.82
2022-07-27T19:49:45.540Z,15.48
2022-07-27T19:52:12.174Z,10.82
2022-07-27T19:54:38.850Z,11.45
2022-07-27T19:57:05.539Z,11.73
2022-07-27T19:59:55.667Z,11.38
2022-07-27T20:02:19.514Z,11.85
2022-07-27T20:04:46.278Z,10.82
2022-07-27T20:07:12.937Z,12.55
2022-07-27T20:09:39.562Z,13.23
2022-07-27T20:12:06.359Z,10.45
2022-07-27T20:14:35.286Z,11.55
2022-07-27T20:17:02.012Z,13.98
2022-07-27T20:19:29.912Z,11.65
2022-07-27T20:21:57.520Z,15.35
2022-07-27T20:24:24.179Z,11.60
2022-07-27T20:26:50.807Z,9.90
2022-07-27T20:29:17.487Z,22.40
2022-07-27T20:31:44.152Z,13.15
2022-07-27T20:34:11.049Z,12.20
2022-07-27T20:36:37.661Z,12.70
2022-07-27T20:39:07.457Z,10.40
2022-07-27T20:41:36.668Z,12.80
2022-07-27T20:44:03.314Z,10.13
2022-07-27T20:46:30.025Z,16.00
2022-07-27T20:48:56.786Z,12.65
2022-07-27T20:51:23.464Z,10.00
2022-07-27T20:53:52.677Z,13.70
2022-07-27T20:56:19.385Z,10.93
2022-07-27T20:58:46.203Z,11.23
2022-07-27T21:01:13.101Z,14.63
2022-07-27T21:03:39.761Z,17.48
2022-07-27T21:06:06.440Z,14.40
2022-07-27T21:08:35.406Z,12.30
2022-07-27T21:11:02.101Z,11.68
2022-07-27T21:13:28.723Z,13.95
2022-07-27T21:15:55.365Z,11.93
2022-07-27T21:18:21.987Z,11.07
2022-07-27T21:20:48.615Z,11.60
2022-07-27T21:23:34.409Z,13.02
2022-07-27T21:26:01.203Z,11.20
2022-07-27T21:28:27.866Z,11.45
2022-07-27T21:30:54.460Z,12.77
2022-07-27T21:33:21.160Z,13.82
2022-07-27T21:35:47.786Z,12.55
2022-07-27T21:38:14.433Z,12.15
2022-07-27T21:40:41.160Z,12.02
2022-07-27T21:43:10.872Z,12.10
2022-07-27T21:45:37.560Z,10.85
2022-07-27T21:48:06.009Z,11.02
2022-07-27T21:50:32.685Z,10.13
2022-07-27T21:53:00.097Z,11.35
2022-07-27T21:55:26.725Z,12.27
2022-07-27T21:57:55.780Z,14.15
2022-07-27T22:00:29.417Z,10.10
2022-07-27T22:02:56.420Z,11.80
2022-07-27T22:05:23.371Z,13.02
2022-07-27T22:07:51.059Z,9.45
2022-07-27T22:10:18.141Z,9.70
2022-07-27T22:12:44.792Z,9.30
2022-07-27T22:15:11.468Z,9.52
2022-07-27T22:17:45.948Z,9.43
2022-07-27T22:20:17.427Z,9.45
2022-07-27T22:22:44.075Z,9.05
2022-07-27T22:25:13.752Z,8.80
2022-07-27T22:27:40.471Z,10.20
2022-07-27T22:30:07.594Z,8.43
2022-07-27T22:32:34.451Z,8.45
2022-07-27T22:35:01.140Z,8.27
2022-07-27T22:37:27.786Z,7.80
2022-07-27T22:39:54.372Z,8.57
2022-07-27T22:42:20.994Z,10.48
2022-07-27T22:44:47.600Z,8.30
2022-07-27T22:47:14.222Z,10.38
2022-07-27T22:49:41.022Z,9.38
2022-07-27T22:52:07.628Z,8.35
2022-07-27T22:54:35.326Z,8.02
2022-07-27T22:57:02.085Z,8.60
2022-07-27T22:59:28.760Z,10.10
2022-07-27T23:01:55.441Z,8.75
2022-07-27T23:04:22.355Z,9.43
2022-07-27T23:06:48.992Z,9.15
2022-07-27T23:09:15.693Z,8.43
2022-07-27T23:11:42.365Z,10.48
2022-07-27T23:14:09.000Z,8.75
2022-07-27T23:16:35.685Z,8.70
2022-07-27T23:19:02.330Z,8.07
2022-07-27T23:21:29.006Z,9.18
2022-07-27T23:23:55.659Z,8.60
2022-07-27T23:26:25.859Z,8.73
2022-07-27T23:28:53.419Z,8.15
2022-07-27T23:31:22.525Z,10.40
2022-07-27T23:33:49.342Z,10.95
2022-07-27T23:36:15.960Z,8.75
2022-07-27T23:38:44.832Z,9.23
2022-07-27T23:41:11.507Z,11.90
2022-07-27T23:43:38.120Z,10.27
2022-07-27T23:46:06.971Z,13.00
2022-07-27T23:48:33.717Z,12.98
2022-07-27T23:51:00.628Z,13.80
2022-07-27T23:53:28.479Z,14.75
2022-07-27T23:55:58.357Z,15.88
2022-07-27T23:58:24.986Z,18.52
